Maynardville, Tennessee
Current Conditions -  °F | °C
As of 10:55 PM on Thursday 27 Nov 2014 (Local Time) from KMOR Reporting Station
Broken Clouds Broken Clouds  
Wind Chill: 25°   Ceiling: 4400
Heat Index: 30°   Visibility: 10mi
Dew Point: 21°   Wind: 5mph
Humidity: 69%   Direction: 290°WNW
Pressure: 30.38"   Gusts: NA
Location:  36.25°N, 83.8°W
Report Text: KMOR 280355Z AUTO 29004KT 10SM BKN044 M01/M06 A3038 RMK
Loading
Personal Weather Stations






























Interactive Weather Map New forecast layout! Learn more

10-Day Weather Forecast

Advertisements
Track Severe Weather on mobile